Terminal Aerodrome Forecast
Issued by NWS

Home | Current Version | Previous Version | Text Only | Print | Product List | Glossary On
Versions: 1 2 3 4 5 6 7 8 9 10 11 12 13 14 15
553
FTPA31 PHFO 091129
TAFHMK
TAF
PHMK 091129Z 0912/1012 02008KT P6SM SKC
     FM092000 02008KT P6SM FEW030 SCT050
     FM100400 01005KT P6SM SKC
      AMD NOT SKED=

USA.gov is the U.S. government's official web portal to all federal, state and local government web resources and services.